sensor_id;sensor_type;location;lat;lon;timestamp;P1;durP1;ratioP1;P2;durP2;ratioP2
27039;SDS011;14589;51.578;7.306;2022-10-04T00:00:56;5.13;;;3.17;;
27039;SDS011;14589;51.578;7.306;2022-10-04T00:05:54;6.72;;;3.20;;
27039;SDS011;14589;51.578;7.306;2022-10-04T00:11:05;5.15;;;3.38;;
27039;SDS011;14589;51.578;7.306;2022-10-04T00:13:36;6.57;;;3.40;;
27039;SDS011;14589;51.578;7.306;2022-10-04T00:16:02;5.82;;;3.45;;
27039;SDS011;14589;51.578;7.306;2022-10-04T00:18:29;4.95;;;2.65;;
27039;SDS011;14589;51.578;7.306;2022-10-04T00:21:02;6.55;;;3.40;;
27039;SDS011;14589;51.578;7.306;2022-10-04T00:26:03;6.03;;;3.25;;
27039;SDS011;14589;51.578;7.306;2022-10-04T00:28:41;6.30;;;3.03;;
27039;SDS011;14589;51.578;7.306;2022-10-04T00:33:40;5.20;;;3.05;;
27039;SDS011;14589;51.578;7.306;2022-10-04T00:41:34;5.03;;;2.60;;
27039;SDS011;14589;51.578;7.306;2022-10-04T00:44:14;7.90;;;3.22;;
27039;SDS011;14589;51.578;7.306;2022-10-04T00:46:44;6.40;;;3.38;;
27039;SDS011;14589;51.578;7.306;2022-10-04T00:49:10;5.72;;;2.78;;
27039;SDS011;14589;51.578;7.306;2022-10-04T00:51:38;6.15;;;3.20;;
27039;SDS011;14589;51.578;7.306;2022-10-04T00:54:11;5.15;;;2.70;;
27039;SDS011;14589;51.578;7.306;2022-10-04T00:56:43;6.53;;;3.00;;
27039;SDS011;14589;51.578;7.306;2022-10-04T01:01:46;6.72;;;3.25;;
27039;SDS011;14589;51.578;7.306;2022-10-04T01:04:22;6.70;;;3.42;;
27039;SDS011;14589;51.578;7.306;2022-10-04T01:07:00;6.72;;;3.13;;
27039;SDS011;14589;51.578;7.306;2022-10-04T01:09:27;5.30;;;3.28;;
27039;SDS011;14589;51.578;7.306;2022-10-04T01:12:09;5.07;;;2.97;;
27039;SDS011;14589;51.578;7.306;2022-10-04T01:14:46;8.27;;;3.30;;
27039;SDS011;14589;51.578;7.306;2022-10-04T01:17:16;4.93;;;3.40;;
27039;SDS011;14589;51.578;7.306;2022-10-04T01:19:48;4.60;;;3.00;;
27039;SDS011;14589;51.578;7.306;2022-10-04T01:24:59;7.40;;;3.00;;
27039;SDS011;14589;51.578;7.306;2022-10-04T01:30:02;5.03;;;3.38;;
27039;SDS011;14589;51.578;7.306;2022-10-04T01:32:30;4.72;;;3.10;;
27039;SDS011;14589;51.578;7.306;2022-10-04T01:34:55;6.25;;;3.22;;
27039;SDS011;14589;51.578;7.306;2022-10-04T01:37:21;6.15;;;3.00;;
27039;SDS011;14589;51.578;7.306;2022-10-04T01:39:47;7.30;;;3.55;;
27039;SDS011;14589;51.578;7.306;2022-10-04T01:42:14;4.93;;;3.20;;
27039;SDS011;14589;51.578;7.306;2022-10-04T01:47:54;5.53;;;3.33;;
27039;SDS011;14589;51.578;7.306;2022-10-04T01:50:31;4.82;;;2.90;;
27039;SDS011;14589;51.578;7.306;2022-10-04T01:53:00;7.40;;;3.28;;
27039;SDS011;14589;51.578;7.306;2022-10-04T01:55:34;5.50;;;3.30;;
27039;SDS011;14589;51.578;7.306;2022-10-04T01:58:08;8.40;;;3.15;;
27039;SDS011;14589;51.578;7.306;2022-10-04T02:00:41;8.30;;;3.50;;
27039;SDS011;14589;51.578;7.306;2022-10-04T02:03:13;7.40;;;3.20;;
27039;SDS011;14589;51.578;7.306;2022-10-04T02:05:53;5.63;;;3.50;;
27039;SDS011;14589;51.578;7.306;2022-10-04T02:08:23;4.78;;;3.58;;
27039;SDS011;14589;51.578;7.306;2022-10-04T02:10:57;4.95;;;3.20;;
27039;SDS011;14589;51.578;7.306;2022-10-04T02:13:24;4.88;;;3.00;;
27039;SDS011;14589;51.578;7.306;2022-10-04T02:15:53;6.65;;;2.92;;
27039;SDS011;14589;51.578;7.306;2022-10-04T02:18:19;4.47;;;2.85;;
27039;SDS011;14589;51.578;7.306;2022-10-04T02:20:46;5.28;;;3.35;;
27039;SDS011;14589;51.578;7.306;2022-10-04T02:23:15;5.28;;;3.38;;
27039;SDS011;14589;51.578;7.306;2022-10-04T02:25:41;5.78;;;3.33;;
27039;SDS011;14589;51.578;7.306;2022-10-04T02:28:10;5.78;;;3.42;;
27039;SDS011;14589;51.578;7.306;2022-10-04T02:30:38;5.32;;;3.30;;
27039;SDS011;14589;51.578;7.306;2022-10-04T02:33:05;7.70;;;3.33;;
27039;SDS011;14589;51.578;7.306;2022-10-04T02:35:42;6.68;;;3.40;;
27039;SDS011;14589;51.578;7.306;2022-10-04T02:38:12;6.10;;;3.22;;
27039;SDS011;14589;51.578;7.306;2022-10-04T02:41:02;5.45;;;3.25;;
27039;SDS011;14589;51.578;7.306;2022-10-04T02:43:33;5.57;;;2.95;;
27039;SDS011;14589;51.578;7.306;2022-10-04T02:48:51;6.55;;;2.92;;
27039;SDS011;14589;51.578;7.306;2022-10-04T02:51:32;4.95;;;3.40;;
27039;SDS011;14589;51.578;7.306;2022-10-04T02:54:44;5.80;;;2.92;;
27039;SDS011;14589;51.578;7.306;2022-10-04T02:56:59;5.57;;;3.50;;
27039;SDS011;14589;51.578;7.306;2022-10-04T02:59:25;3.42;;;2.70;;
27039;SDS011;14589;51.578;7.306;2022-10-04T03:01:52;7.30;;;3.40;;
27039;SDS011;14589;51.578;7.306;2022-10-04T03:04:23;6.03;;;3.45;;
27039;SDS011;14589;51.578;7.306;2022-10-04T03:06:50;5.18;;;3.53;;
27039;SDS011;14589;51.578;7.306;2022-10-04T03:09:16;4.93;;;3.05;;
27039;SDS011;14589;51.578;7.306;2022-10-04T03:11:44;8.25;;;3.67;;
27039;SDS011;14589;51.578;7.306;2022-10-04T03:14:20;7.70;;;3.50;;
27039;SDS011;14589;51.578;7.306;2022-10-04T03:16:47;6.30;;;4.00;;
27039;SDS011;14589;51.578;7.306;2022-10-04T03:19:15;5.88;;;3.15;;
27039;SDS011;14589;51.578;7.306;2022-10-04T03:21:42;5.85;;;3.95;;
27039;SDS011;14589;51.578;7.306;2022-10-04T03:24:13;5.05;;;3.80;;
27039;SDS011;14589;51.578;7.306;2022-10-04T03:26:45;4.68;;;3.58;;
27039;SDS011;14589;51.578;7.306;2022-10-04T03:29:13;5.55;;;3.40;;
27039;SDS011;14589;51.578;7.306;2022-10-04T03:31:46;6.38;;;3.25;;
27039;SDS011;14589;51.578;7.306;2022-10-04T03:36:45;7.63;;;3.38;;
27039;SDS011;14589;51.578;7.306;2022-10-04T03:39:16;7.50;;;4.15;;
27039;SDS011;14589;51.578;7.306;2022-10-04T03:41:46;8.77;;;4.60;;
27039;SDS011;14589;51.578;7.306;2022-10-04T03:44:15;10.40;;;4.57;;
27039;SDS011;14589;51.578;7.306;2022-10-04T03:46:42;10.18;;;4.20;;
27039;SDS011;14589;51.578;7.306;2022-10-04T03:49:07;12.30;;;4.65;;
27039;SDS011;14589;51.578;7.306;2022-10-04T03:51:34;10.02;;;4.63;;
27039;SDS011;14589;51.578;7.306;2022-10-04T03:54:00;8.48;;;4.50;;
27039;SDS011;14589;51.578;7.306;2022-10-04T03:56:30;7.10;;;4.60;;
27039;SDS011;14589;51.578;7.306;2022-10-04T03:59:03;7.65;;;4.78;;
27039;SDS011;14589;51.578;7.306;2022-10-04T04:01:39;8.88;;;4.18;;
27039;SDS011;14589;51.578;7.306;2022-10-04T04:10:06;7.68;;;3.95;;
27039;SDS011;14589;51.578;7.306;2022-10-04T04:12:55;6.00;;;3.80;;
27039;SDS011;14589;51.578;7.306;2022-10-04T04:15:21;6.43;;;3.78;;
27039;SDS011;14589;51.578;7.306;2022-10-04T04:17:51;6.25;;;4.20;;
27039;SDS011;14589;51.578;7.306;2022-10-04T04:20:21;6.45;;;4.18;;
27039;SDS011;14589;51.578;7.306;2022-10-04T04:22:57;10.02;;;4.00;;
27039;SDS011;14589;51.578;7.306;2022-10-04T04:25:25;7.85;;;3.92;;
27039;SDS011;14589;51.578;7.306;2022-10-04T04:27:52;5.53;;;3.63;;
27039;SDS011;14589;51.578;7.306;2022-10-04T04:30:24;5.25;;;3.92;;
27039;SDS011;14589;51.578;7.306;2022-10-04T04:32:50;6.25;;;3.72;;
27039;SDS011;14589;51.578;7.306;2022-10-04T04:35:21;6.88;;;3.67;;
27039;SDS011;14589;51.578;7.306;2022-10-04T04:40:35;6.32;;;3.65;;
27039;SDS011;14589;51.578;7.306;2022-10-04T04:43:01;8.88;;;4.30;;
27039;SDS011;14589;51.578;7.306;2022-10-04T04:45:27;6.35;;;3.50;;
27039;SDS011;14589;51.578;7.306;2022-10-04T04:47:55;8.70;;;4.20;;
27039;SDS011;14589;51.578;7.306;2022-10-04T04:55:23;5.05;;;3.72;;
27039;SDS011;14589;51.578;7.306;2022-10-04T04:57:51;6.43;;;3.75;;
27039;SDS011;14589;51.578;7.306;2022-10-04T05:00:21;6.30;;;3.80;;
27039;SDS011;14589;51.578;7.306;2022-10-04T05:02:54;9.60;;;3.97;;
27039;SDS011;14589;51.578;7.306;2022-10-04T05:05:22;5.43;;;3.53;;
27039;SDS011;14589;51.578;7.306;2022-10-04T05:07:48;8.68;;;4.32;;
27039;SDS011;14589;51.578;7.306;2022-10-04T05:10:24;4.97;;;3.58;;
27039;SDS011;14589;51.578;7.306;2022-10-04T05:12:55;6.68;;;3.92;;
27039;SDS011;14589;51.578;7.306;2022-10-04T05:15:21;6.20;;;3.80;;
27039;SDS011;14589;51.578;7.306;2022-10-04T05:17:47;6.35;;;4.05;;
27039;SDS011;14589;51.578;7.306;2022-10-04T05:20:12;5.85;;;3.90;;
27039;SDS011;14589;51.578;7.306;2022-10-04T05:22:39;6.93;;;4.22;;
27039;SDS011;14589;51.578;7.306;2022-10-04T05:25:08;7.85;;;3.67;;
27039;SDS011;14589;51.578;7.306;2022-10-04T05:27:38;8.07;;;3.90;;
27039;SDS011;14589;51.578;7.306;2022-10-04T05:30:11;5.28;;;3.70;;
27039;SDS011;14589;51.578;7.306;2022-10-04T05:46:54;5.72;;;3.35;;
27039;SDS011;14589;51.578;7.306;2022-10-04T05:49:21;4.63;;;3.28;;
27039;SDS011;14589;51.578;7.306;2022-10-04T05:54:27;6.65;;;3.80;;
27039;SDS011;14589;51.578;7.306;2022-10-04T06:08:00;6.93;;;3.03;;
27039;SDS011;14589;51.578;7.306;2022-10-04T06:16:03;9.50;;;3.75;;
27039;SDS011;14589;51.578;7.306;2022-10-04T06:21:12;6.85;;;4.30;;
27039;SDS011;14589;51.578;7.306;2022-10-04T06:23:56;8.05;;;4.70;;
27039;SDS011;14589;51.578;7.306;2022-10-04T06:26:27;8.32;;;4.80;;
27039;SDS011;14589;51.578;7.306;2022-10-04T06:29:00;9.63;;;5.18;;
27039;SDS011;14589;51.578;7.306;2022-10-04T06:31:34;9.75;;;5.65;;
27039;SDS011;14589;51.578;7.306;2022-10-04T06:34:44;8.18;;;5.38;;
27039;SDS011;14589;51.578;7.306;2022-10-04T06:40:18;9.80;;;5.47;;
27039;SDS011;14589;51.578;7.306;2022-10-04T06:43:02;10.45;;;5.85;;
27039;SDS011;14589;51.578;7.306;2022-10-04T07:00:20;9.43;;;5.57;;
27039;SDS011;14589;51.578;7.306;2022-10-04T07:02:40;13.93;;;5.88;;
27039;SDS011;14589;51.578;7.306;2022-10-04T07:05:14;9.13;;;5.50;;
27039;SDS011;14589;51.578;7.306;2022-10-04T07:08:18;13.43;;;5.70;;
27039;SDS011;14589;51.578;7.306;2022-10-04T07:21:47;5.90;;;3.97;;
27039;SDS011;14589;51.578;7.306;2022-10-04T07:24:22;5.05;;;2.38;;
27039;SDS011;14589;51.578;7.306;2022-10-04T07:26:51;8.20;;;4.35;;
27039;SDS011;14589;51.578;7.306;2022-10-04T07:29:23;9.77;;;4.22;;
27039;SDS011;14589;51.578;7.306;2022-10-04T07:37:35;11.02;;;4.88;;
27039;SDS011;14589;51.578;7.306;2022-10-04T07:40:17;13.43;;;4.40;;
27039;SDS011;14589;51.578;7.306;2022-10-04T07:42:48;10.75;;;4.38;;
27039;SDS011;14589;51.578;7.306;2022-10-04T07:45:21;10.95;;;4.20;;
27039;SDS011;14589;51.578;7.306;2022-10-04T07:47:49;13.30;;;4.70;;
27039;SDS011;14589;51.578;7.306;2022-10-04T07:50:18;12.48;;;4.70;;
27039;SDS011;14589;51.578;7.306;2022-10-04T07:52:49;7.53;;;4.20;;
27039;SDS011;14589;51.578;7.306;2022-10-04T07:55:23;11.50;;;3.92;;
27039;SDS011;14589;51.578;7.306;2022-10-04T08:06:13;9.32;;;3.72;;
27039;SDS011;14589;51.578;7.306;2022-10-04T08:11:58;7.45;;;3.88;;
27039;SDS011;14589;51.578;7.306;2022-10-04T08:54:39;4.07;;;2.75;;
27039;SDS011;14589;51.578;7.306;2022-10-04T09:26:45;5.00;;;2.80;;
27039;SDS011;14589;51.578;7.306;2022-10-04T09:31:56;6.78;;;2.70;;
27039;SDS011;14589;51.578;7.306;2022-10-04T09:48:45;6.20;;;2.40;;
27039;SDS011;14589;51.578;7.306;2022-10-04T09:57:07;8.45;;;2.55;;
27039;SDS011;14589;51.578;7.306;2022-10-04T10:16:36;4.68;;;2.50;;
27039;SDS011;14589;51.578;7.306;2022-10-04T10:19:21;7.43;;;2.00;;
27039;SDS011;14589;51.578;7.306;2022-10-04T10:27:14;5.78;;;2.40;;
27039;SDS011;14589;51.578;7.306;2022-10-04T10:49:50;7.55;;;2.58;;
27039;SDS011;14589;51.578;7.306;2022-10-04T10:55:16;8.88;;;2.72;;
27039;SDS011;14589;51.578;7.306;2022-10-04T11:07:13;4.30;;;2.58;;
27039;SDS011;14589;51.578;7.306;2022-10-04T11:15:39;7.35;;;2.40;;
27039;SDS011;14589;51.578;7.306;2022-10-04T11:27:02;10.80;;;6.30;;
27039;SDS011;14589;51.578;7.306;2022-10-04T11:39:22;3.83;;;1.98;;
27039;SDS011;14589;51.578;7.306;2022-10-04T11:49:53;5.25;;;2.50;;
27039;SDS011;14589;51.578;7.306;2022-10-04T11:53:52;2.97;;;2.00;;
27039;SDS011;14589;51.578;7.306;2022-10-04T12:06:45;6.53;;;3.10;;
27039;SDS011;14589;51.578;7.306;2022-10-04T12:32:11;3.20;;;2.30;;
27039;SDS011;14589;51.578;7.306;2022-10-04T12:43:01;14.63;;;9.07;;
27039;SDS011;14589;51.578;7.306;2022-10-04T12:45:42;3.90;;;2.03;;
27039;SDS011;14589;51.578;7.306;2022-10-04T12:48:21;5.85;;;2.13;;
27039;SDS011;14589;51.578;7.306;2022-10-04T13:05:00;5.95;;;3.53;;
27039;SDS011;14589;51.578;7.306;2022-10-04T13:15:56;4.28;;;3.35;;
27039;SDS011;14589;51.578;7.306;2022-10-04T13:18:44;8.63;;;2.45;;
27039;SDS011;14589;51.578;7.306;2022-10-04T13:21:59;4.72;;;3.13;;
27039;SDS011;14589;51.578;7.306;2022-10-04T13:24:18;4.88;;;3.17;;
27039;SDS011;14589;51.578;7.306;2022-10-04T13:27:21;24.00;;;12.73;;
27039;SDS011;14589;51.578;7.306;2022-10-04T13:30:00;21.45;;;12.35;;
27039;SDS011;14589;51.578;7.306;2022-10-04T13:32:48;7.07;;;2.30;;
27039;SDS011;14589;51.578;7.306;2022-10-04T13:38:27;4.53;;;1.90;;
27039;SDS011;14589;51.578;7.306;2022-10-04T13:51:27;5.10;;;2.00;;
27039;SDS011;14589;51.578;7.306;2022-10-04T14:00:59;2.75;;;2.00;;
27039;SDS011;14589;51.578;7.306;2022-10-04T14:09:20;3.88;;;1.83;;
27039;SDS011;14589;51.578;7.306;2022-10-04T14:11:55;3.22;;;1.60;;
27039;SDS011;14589;51.578;7.306;2022-10-04T14:28:57;10.70;;;2.25;;
27039;SDS011;14589;51.578;7.306;2022-10-04T14:34:39;5.05;;;2.13;;
27039;SDS011;14589;51.578;7.306;2022-10-04T14:37:23;2.15;;;1.60;;
27039;SDS011;14589;51.578;7.306;2022-10-04T14:39:58;4.60;;;2.00;;
27039;SDS011;14589;51.578;7.306;2022-10-04T14:42:33;3.35;;;1.80;;
27039;SDS011;14589;51.578;7.306;2022-10-04T14:50:57;3.63;;;2.03;;
27039;SDS011;14589;51.578;7.306;2022-10-04T15:01:42;7.22;;;2.00;;
27039;SDS011;14589;51.578;7.306;2022-10-04T15:07:39;5.88;;;1.98;;
27039;SDS011;14589;51.578;7.306;2022-10-04T15:13:02;6.10;;;1.92;;
27039;SDS011;14589;51.578;7.306;2022-10-04T15:15:34;8.48;;;2.05;;
27039;SDS011;14589;51.578;7.306;2022-10-04T15:18:43;3.65;;;1.90;;
27039;SDS011;14589;51.578;7.306;2022-10-04T15:23:34;6.38;;;2.05;;
27039;SDS011;14589;51.578;7.306;2022-10-04T15:26:35;9.35;;;2.25;;
27039;SDS011;14589;51.578;7.306;2022-10-04T15:31:49;3.15;;;2.08;;
27039;SDS011;14589;51.578;7.306;2022-10-04T15:34:41;5.90;;;2.45;;
27039;SDS011;14589;51.578;7.306;2022-10-04T15:37:13;5.32;;;2.10;;
27039;SDS011;14589;51.578;7.306;2022-10-04T15:40:08;4.53;;;2.20;;
27039;SDS011;14589;51.578;7.306;2022-10-04T15:43:24;5.43;;;2.00;;
27039;SDS011;14589;51.578;7.306;2022-10-04T15:46:02;3.05;;;2.03;;
27039;SDS011;14589;51.578;7.306;2022-10-04T15:56:59;4.95;;;2.03;;
27039;SDS011;14589;51.578;7.306;2022-10-04T16:02:57;5.03;;;2.42;;
27039;SDS011;14589;51.578;7.306;2022-10-04T16:24:57;6.82;;;2.35;;
27039;SDS011;14589;51.578;7.306;2022-10-04T16:30:39;4.55;;;2.55;;
27039;SDS011;14589;51.578;7.306;2022-10-04T16:35:59;4.60;;;2.13;;
27039;SDS011;14589;51.578;7.306;2022-10-04T16:38:28;6.90;;;2.83;;
27039;SDS011;14589;51.578;7.306;2022-10-04T16:41:08;7.25;;;2.67;;
27039;SDS011;14589;51.578;7.306;2022-10-04T16:43:47;8.00;;;2.97;;
27039;SDS011;14589;51.578;7.306;2022-10-04T16:46:29;6.63;;;2.55;;
27039;SDS011;14589;51.578;7.306;2022-10-04T16:59:48;6.03;;;3.42;;
27039;SDS011;14589;51.578;7.306;2022-10-04T17:10:28;7.38;;;3.13;;
27039;SDS011;14589;51.578;7.306;2022-10-04T17:15:57;4.93;;;3.25;;
27039;SDS011;14589;51.578;7.306;2022-10-04T17:27:24;10.82;;;5.50;;
27039;SDS011;14589;51.578;7.306;2022-10-04T17:36:46;9.32;;;5.75;;
27039;SDS011;14589;51.578;7.306;2022-10-04T17:39:47;9.75;;;5.53;;
27039;SDS011;14589;51.578;7.306;2022-10-04T17:42:19;7.50;;;5.57;;
27039;SDS011;14589;51.578;7.306;2022-10-04T17:44:56;8.63;;;5.10;;
27039;SDS011;14589;51.578;7.306;2022-10-04T17:53:48;8.48;;;4.20;;
27039;SDS011;14589;51.578;7.306;2022-10-04T18:00:14;9.95;;;4.38;;
27039;SDS011;14589;51.578;7.306;2022-10-04T18:05:50;6.07;;;3.80;;
27039;SDS011;14589;51.578;7.306;2022-10-04T18:17:01;10.52;;;5.88;;
27039;SDS011;14589;51.578;7.306;2022-10-04T18:22:49;16.80;;;7.88;;
27039;SDS011;14589;51.578;7.306;2022-10-04T18:25:16;16.88;;;8.20;;
27039;SDS011;14589;51.578;7.306;2022-10-04T18:27:58;17.85;;;9.07;;
27039;SDS011;14589;51.578;7.306;2022-10-04T18:33:12;28.80;;;14.13;;
27039;SDS011;14589;51.578;7.306;2022-10-04T18:35:50;28.60;;;14.23;;
27039;SDS011;14589;51.578;7.306;2022-10-04T18:41:42;40.92;;;19.90;;
27039;SDS011;14589;51.578;7.306;2022-10-04T18:50:15;34.45;;;16.17;;
27039;SDS011;14589;51.578;7.306;2022-10-04T18:52:46;28.80;;;14.57;;
27039;SDS011;14589;51.578;7.306;2022-10-04T18:55:24;29.65;;;15.57;;
27039;SDS011;14589;51.578;7.306;2022-10-04T18:58:00;24.58;;;13.43;;
27039;SDS011;14589;51.578;7.306;2022-10-04T19:13:24;17.23;;;8.13;;
27039;SDS011;14589;51.578;7.306;2022-10-04T19:24:06;8.57;;;5.78;;
27039;SDS011;14589;51.578;7.306;2022-10-04T19:26:38;14.88;;;7.18;;
27039;SDS011;14589;51.578;7.306;2022-10-04T19:32:13;10.45;;;6.10;;
27039;SDS011;14589;51.578;7.306;2022-10-04T19:35:02;11.27;;;6.38;;
27039;SDS011;14589;51.578;7.306;2022-10-04T19:37:59;10.40;;;6.40;;
27039;SDS011;14589;51.578;7.306;2022-10-04T19:48:49;7.80;;;5.78;;
27039;SDS011;14589;51.578;7.306;2022-10-04T19:51:20;10.68;;;5.88;;
27039;SDS011;14589;51.578;7.306;2022-10-04T19:53:53;9.60;;;5.90;;
27039;SDS011;14589;51.578;7.306;2022-10-04T19:56:24;11.32;;;6.18;;
27039;SDS011;14589;51.578;7.306;2022-10-04T20:01:43;10.80;;;6.22;;
27039;SDS011;14589;51.578;7.306;2022-10-04T20:04:13;8.68;;;5.55;;
27039;SDS011;14589;51.578;7.306;2022-10-04T20:06:59;7.57;;;5.05;;
27039;SDS011;14589;51.578;7.306;2022-10-04T20:15:11;7.35;;;4.85;;
27039;SDS011;14589;51.578;7.306;2022-10-04T20:17:48;9.63;;;5.13;;
27039;SDS011;14589;51.578;7.306;2022-10-04T20:20:15;7.65;;;4.68;;
27039;SDS011;14589;51.578;7.306;2022-10-04T20:25:27;8.38;;;4.68;;
27039;SDS011;14589;51.578;7.306;2022-10-04T20:28:09;9.65;;;6.13;;
27039;SDS011;14589;51.578;7.306;2022-10-04T20:30:57;11.00;;;5.70;;
27039;SDS011;14589;51.578;7.306;2022-10-04T20:41:40;14.93;;;8.05;;
27039;SDS011;14589;51.578;7.306;2022-10-04T20:58:56;13.25;;;7.78;;
27039;SDS011;14589;51.578;7.306;2022-10-04T21:01:32;15.77;;;8.75;;
27039;SDS011;14589;51.578;7.306;2022-10-04T21:06:59;11.50;;;7.85;;
27039;SDS011;14589;51.578;7.306;2022-10-04T21:09:28;12.07;;;8.55;;
27039;SDS011;14589;51.578;7.306;2022-10-04T21:17:34;16.15;;;9.48;;
27039;SDS011;14589;51.578;7.306;2022-10-04T21:22:31;17.83;;;9.48;;
27039;SDS011;14589;51.578;7.306;2022-10-04T21:24:59;18.92;;;10.15;;
27039;SDS011;14589;51.578;7.306;2022-10-04T21:30:05;19.45;;;10.52;;
27039;SDS011;14589;51.578;7.306;2022-10-04T21:32:48;17.60;;;9.32;;
27039;SDS011;14589;51.578;7.306;2022-10-04T21:35:26;16.90;;;8.75;;
27039;SDS011;14589;51.578;7.306;2022-10-04T21:37:54;15.88;;;9.02;;
27039;SDS011;14589;51.578;7.306;2022-10-04T21:40:19;17.20;;;6.97;;
27039;SDS011;14589;51.578;7.306;2022-10-04T21:42:45;14.20;;;6.43;;
27039;SDS011;14589;51.578;7.306;2022-10-04T21:45:10;13.93;;;7.38;;
27039;SDS011;14589;51.578;7.306;2022-10-04T21:47:36;11.13;;;6.63;;
27039;SDS011;14589;51.578;7.306;2022-10-04T21:50:01;12.50;;;6.38;;
27039;SDS011;14589;51.578;7.306;2022-10-04T21:52:27;9.43;;;5.75;;
27039;SDS011;14589;51.578;7.306;2022-10-04T21:54:52;11.25;;;6.07;;
27039;SDS011;14589;51.578;7.306;2022-10-04T21:57:18;9.25;;;5.50;;
27039;SDS011;14589;51.578;7.306;2022-10-04T21:59:43;11.45;;;5.25;;
27039;SDS011;14589;51.578;7.306;2022-10-04T22:02:08;9.85;;;5.05;;
27039;SDS011;14589;51.578;7.306;2022-10-04T22:04:34;11.50;;;5.93;;
27039;SDS011;14589;51.578;7.306;2022-10-04T22:06:59;12.07;;;5.50;;
27039;SDS011;14589;51.578;7.306;2022-10-04T22:09:34;9.35;;;5.57;;
27039;SDS011;14589;51.578;7.306;2022-10-04T22:12:00;13.80;;;6.47;;
27039;SDS011;14589;51.578;7.306;2022-10-04T22:14:25;7.38;;;5.13;;
27039;SDS011;14589;51.578;7.306;2022-10-04T22:16:51;8.57;;;5.05;;
27039;SDS011;14589;51.578;7.306;2022-10-04T22:19:16;7.85;;;5.18;;
27039;SDS011;14589;51.578;7.306;2022-10-04T22:21:41;8.32;;;4.97;;
27039;SDS011;14589;51.578;7.306;2022-10-04T22:24:17;11.98;;;5.68;;
27039;SDS011;14589;51.578;7.306;2022-10-04T22:26:44;12.15;;;6.22;;
27039;SDS011;14589;51.578;7.306;2022-10-04T22:29:13;8.85;;;5.47;;
27039;SDS011;14589;51.578;7.306;2022-10-04T22:31:48;7.03;;;4.93;;
27039;SDS011;14589;51.578;7.306;2022-10-04T22:34:20;10.52;;;4.90;;
27039;SDS011;14589;51.578;7.306;2022-10-04T22:36:47;10.32;;;4.68;;
27039;SDS011;14589;51.578;7.306;2022-10-04T22:39:17;9.88;;;5.63;;
27039;SDS011;14589;51.578;7.306;2022-10-04T22:41:55;10.00;;;5.13;;
27039;SDS011;14589;51.578;7.306;2022-10-04T22:44:24;10.18;;;5.05;;
27039;SDS011;14589;51.578;7.306;2022-10-04T22:46:58;8.50;;;4.97;;
27039;SDS011;14589;51.578;7.306;2022-10-04T22:49:25;11.05;;;4.85;;
27039;SDS011;14589;51.578;7.306;2022-10-04T22:51:52;11.27;;;5.07;;
27039;SDS011;14589;51.578;7.306;2022-10-04T22:54:25;13.23;;;5.78;;
27039;SDS011;14589;51.578;7.306;2022-10-04T22:56:55;16.38;;;5.97;;
27039;SDS011;14589;51.578;7.306;2022-10-04T22:59:23;10.50;;;5.35;;
27039;SDS011;14589;51.578;7.306;2022-10-04T23:02:05;15.35;;;5.22;;
27039;SDS011;14589;51.578;7.306;2022-10-04T23:04:33;9.25;;;4.75;;
27039;SDS011;14589;51.578;7.306;2022-10-04T23:06:59;9.05;;;4.60;;
27039;SDS011;14589;51.578;7.306;2022-10-04T23:09:25;9.90;;;4.68;;
27039;SDS011;14589;51.578;7.306;2022-10-04T23:11:51;10.60;;;4.97;;
27039;SDS011;14589;51.578;7.306;2022-10-04T23:14:21;7.70;;;4.60;;
27039;SDS011;14589;51.578;7.306;2022-10-04T23:16:47;10.23;;;5.20;;
27039;SDS011;14589;51.578;7.306;2022-10-04T23:19:15;10.73;;;4.65;;
27039;SDS011;14589;51.578;7.306;2022-10-04T23:21:52;8.50;;;4.10;;
27039;SDS011;14589;51.578;7.306;2022-10-04T23:24:18;10.55;;;4.80;;
27039;SDS011;14589;51.578;7.306;2022-10-04T23:26:49;7.78;;;4.90;;
27039;SDS011;14589;51.578;7.306;2022-10-04T23:29:20;9.02;;;5.05;;
27039;SDS011;14589;51.578;7.306;2022-10-04T23:31:48;10.35;;;5.25;;
27039;SDS011;14589;51.578;7.306;2022-10-04T23:34:31;11.25;;;4.57;;
27039;SDS011;14589;51.578;7.306;2022-10-04T23:36:58;8.32;;;5.07;;
27039;SDS011;14589;51.578;7.306;2022-10-04T23:39:26;6.00;;;4.22;;
27039;SDS011;14589;51.578;7.306;2022-10-04T23:41:56;8.40;;;4.55;;
27039;SDS011;14589;51.578;7.306;2022-10-04T23:44:22;7.15;;;4.43;;
27039;SDS011;14589;51.578;7.306;2022-10-04T23:46:48;9.07;;;4.93;;
27039;SDS011;14589;51.578;7.306;2022-10-04T23:49:16;8.55;;;4.30;;
27039;SDS011;14589;51.578;7.306;2022-10-04T23:51:45;6.35;;;4.13;;
27039;SDS011;14589;51.578;7.306;2022-10-04T23:54:21;7.30;;;4.22;;
27039;SDS011;14589;51.578;7.306;2022-10-04T23:56:46;8.68;;;4.38;;
27039;SDS011;14589;51.578;7.306;2022-10-04T23:59:15;8.43;;;4.30;;
